Time;durP1;ratioP1;P1;durP2;ratioP2;P2;SDS_P1;SDS_P2;PMS_P1;PMS_P2;Temp;Humidity;BMP_temperature;BMP_pressure;BME280_temperature;BME280_humidity;BME280_pressure;Samples;Min_cycle;Max_cycle;Signal;HPM_P1;HPM_P2
2022/03/12 00:01:17;;;;;;;11.60;10.20;;;;;;;7.61;42.82;98607.88;4145328;28;20218;-49
2022/03/12 00:03:19;;;;;;;10.40;9.40;;;;;;;7.60;43.00;98602.66;4141299;28;20212;-49
2022/03/12 00:05:21;;;;;;;11.93;10.88;;;;;;;7.58;42.97;98604.78;4145122;28;20220;-50
2022/03/12 00:07:24;;;;;;;11.50;10.38;;;;;;;7.52;43.07;98606.53;4155846;28;20212;-49
2022/03/12 00:09:26;;;;;;;10.32;9.30;;;;;;;7.49;42.82;98611.59;4137590;28;20233;-49
2022/03/12 00:11:34;;;;;;;10.55;9.73;;;;;;;7.45;43.03;98610.38;4139506;28;20240;-49
2022/03/12 00:13:36;;;;;;;12.30;10.18;;;;;;;7.41;43.46;98604.56;4142458;28;20259;-50
2022/03/12 00:15:38;;;;;;;10.98;9.95;;;;;;;7.38;43.55;98615.09;4144827;28;20288;-48
2022/03/12 00:17:45;;;;;;;10.27;9.10;;;;;;;7.35;43.60;98610.09;4144956;28;20209;-49
2022/03/12 00:19:47;;;;;;;10.35;9.48;;;;;;;7.32;43.64;98615.97;4173341;28;20236;-50
2022/03/12 00:21:49;;;;;;;10.05;9.20;;;;;;;7.31;43.54;98615.16;4155521;28;20213;-49
2022/03/12 00:23:53;;;;;;;10.68;9.73;;;;;;;7.34;43.69;98613.84;4139740;28;20281;-49
2022/03/12 00:25:55;;;;;;;9.48;8.57;;;;;;;7.32;43.95;98624.16;4148082;28;20215;-49
2022/03/12 00:27:56;;;;;;;10.85;9.88;;;;;;;7.32;44.07;98624.16;4146446;28;20236;-50
2022/03/12 00:30:00;;;;;;;11.38;10.48;;;;;;;7.29;44.04;98633.59;4144883;28;20221;-49
2022/03/12 00:32:05;;;;;;;10.75;9.50;;;;;;;7.28;44.37;98631.13;4147412;28;20239;-51
2022/03/12 00:34:07;;;;;;;15.15;9.90;;;;;;;7.28;44.39;98637.38;4155379;28;20210;-49
2022/03/12 00:36:09;;;;;;;10.20;9.30;;;;;;;7.25;44.69;98637.00;4136130;28;20593;-49
2022/03/12 00:38:10;;;;;;;11.10;10.20;;;;;;;7.13;44.93;98638.78;4172431;28;20232;-49
2022/03/12 00:40:15;;;;;;;12.13;10.82;;;;;;;7.12;44.93;98631.69;4123467;28;21146;-51
2022/03/12 00:42:17;;;;;;;17.13;10.38;;;;;;;7.11;44.71;98630.03;4143328;28;20205;-49
2022/03/12 00:44:20;;;;;;;10.68;9.80;;;;;;;7.05;45.10;98630.94;4152193;28;20732;-50
2022/03/12 00:46:22;;;;;;;12.27;10.73;;;;;;;7.02;45.31;98624.06;4139246;28;20210;-49
2022/03/12 00:48:24;;;;;;;13.45;11.13;;;;;;;7.00;45.64;98631.63;4171106;28;20754;-50
2022/03/12 00:50:38;;;;;;;11.73;9.73;;;;;;;6.99;45.68;98629.09;4134006;28;20629;-48
2022/03/12 00:52:40;;;;;;;11.10;10.10;;;;;;;6.98;45.53;98635.63;4168703;28;20705;-49
2022/03/12 00:54:42;;;;;;;12.07;10.98;;;;;;;7.00;45.35;98630.78;4138711;28;20205;-49
2022/03/12 00:56:44;;;;;;;11.57;10.52;;;;;;;6.99;46.17;98634.56;4170575;28;20295;-49
2022/03/12 00:58:47;;;;;;;11.38;10.38;;;;;;;6.97;45.99;98633.94;4136913;28;20229;-49
2022/03/12 01:00:49;;;;;;;12.70;11.40;;;;;;;6.92;45.98;98636.50;4173265;28;20269;-49
2022/03/12 01:02:51;;;;;;;10.30;9.10;;;;;;;6.90;45.94;98638.63;4144603;28;20288;-51
2022/03/12 01:04:54;;;;;;;11.88;10.73;;;;;;;6.87;46.16;98641.78;4143192;28;20356;-49
2022/03/12 01:06:55;;;;;;;13.13;12.02;;;;;;;6.84;46.00;98634.09;4139238;28;20210;-49
2022/03/12 01:08:57;;;;;;;11.57;10.63;;;;;;;6.84;46.33;98642.25;4142844;28;20232;-49
2022/03/12 01:11:03;;;;;;;22.17;10.93;;;;;;;6.82;46.60;98642.44;4126594;28;20237;-49
2022/03/12 01:13:05;;;;;;;12.48;11.27;;;;;;;6.81;46.42;98650.81;4143465;28;20697;-49
2022/03/12 01:15:07;;;;;;;11.82;10.82;;;;;;;6.84;46.50;98644.97;4139136;28;20238;-50
2022/03/12 01:17:09;;;;;;;12.68;11.57;;;;;;;6.73;46.87;98643.81;4140257;28;20261;-49
2022/03/12 01:19:15;;;;;;;12.43;11.43;;;;;;;6.74;46.82;98650.06;4141036;28;20228;-51
2022/03/12 01:21:18;;;;;;;16.75;10.52;;;;;;;6.72;46.79;98657.59;4133879;28;20276;-51
2022/03/12 01:23:24;;;;;;;11.13;10.02;;;;;;;6.70;46.92;98648.84;4140338;28;20202;-49
2022/03/12 01:25:27;;;;;;;12.40;11.23;;;;;;;6.73;47.11;98653.84;4128007;28;20280;-50
2022/03/12 01:27:29;;;;;;;12.15;10.95;;;;;;;6.72;47.06;98657.59;4157406;28;20206;-52
2022/03/12 01:29:31;;;;;;;13.15;11.93;;;;;;;6.72;47.39;98653.00;4155520;28;20262;-51
2022/03/12 01:31:36;;;;;;;11.77;10.70;;;;;;;6.73;47.33;98653.84;4156047;28;20560;-50
2022/03/12 01:33:38;;;;;;;12.23;11.10;;;;;;;6.73;47.61;98656.53;4138478;28;20209;-50
2022/03/12 01:35:40;;;;;;;13.52;10.77;;;;;;;6.74;47.13;98652.78;4171236;28;20242;-48
2022/03/12 01:37:42;;;;;;;12.57;10.90;;;;;;;6.74;47.85;98660.94;4152135;28;20241;-53
2022/03/12 01:39:44;;;;;;;13.27;12.02;;;;;;;6.74;47.21;98655.50;4153579;28;20237;-50
2022/03/12 01:41:45;;;;;;;12.40;11.30;;;;;;;6.71;47.99;98655.94;4137664;28;20592;-49
2022/03/12 01:43:49;;;;;;;11.60;10.45;;;;;;;6.67;48.16;98654.72;4145272;28;20205;-50
2022/03/12 01:45:51;;;;;;;12.48;11.30;;;;;;;6.67;47.76;98658.28;4161253;28;20212;-49
2022/03/12 01:47:58;;;;;;;13.05;10.50;;;;;;;6.64;47.96;98655.16;4137118;28;20210;-50
2022/03/12 01:50:00;;;;;;;11.25;10.15;;;;;;;6.67;48.29;98657.44;4128324;28;20252;-50
2022/03/12 01:52:02;;;;;;;16.15;10.98;;;;;;;6.65;47.92;98651.41;4151272;28;20205;-49
2022/03/12 01:54:04;;;;;;;12.98;11.55;;;;;;;6.68;47.99;98656.41;4130666;28;20843;-48
2022/03/12 01:56:06;;;;;;;12.70;10.95;;;;;;;6.68;47.58;98656.41;4143106;28;20201;-49
2022/03/12 01:58:08;;;;;;;11.60;10.55;;;;;;;6.69;47.82;98660.78;4137936;28;20264;-49
2022/03/12 02:00:24;;;;;;;12.60;11.55;;;;;;;6.70;47.88;98659.72;4152387;28;20232;-49
2022/03/12 02:02:27;;;;;;;11.55;10.52;;;;;;;6.71;47.84;98656.78;4139470;28;20574;-50
2022/03/12 02:04:30;;;;;;;11.43;10.20;;;;;;;6.70;48.68;98649.66;4155643;28;20211;-50
2022/03/12 02:06:32;;;;;;;11.77;10.73;;;;;;;6.71;48.61;98653.22;4144880;28;20213;-50
2022/03/12 02:08:34;;;;;;;11.63;10.52;;;;;;;6.70;48.34;98649.66;4142677;28;20198;-49
2022/03/12 02:10:36;;;;;;;12.10;11.00;;;;;;;6.69;48.68;98656.16;4160063;28;20201;-49
2022/03/12 02:12:38;;;;;;;11.23;10.23;;;;;;;6.68;48.86;98648.25;4139182;28;20197;-50
2022/03/12 02:14:40;;;;;;;11.30;10.30;;;;;;;6.66;49.00;98658.50;4137091;28;20220;-49
2022/03/12 02:16:52;;;;;;;9.88;9.10;;;;;;;6.69;49.08;98648.00;4137623;28;20213;-49
2022/03/12 02:18:54;;;;;;;10.90;9.85;;;;;;;6.64;49.30;98661.47;4139241;28;20256;-49
2022/03/12 02:20:57;;;;;;;11.48;10.57;;;;;;;6.62;49.42;98663.53;4172995;28;20268;-49
2022/03/12 02:22:59;;;;;;;11.07;10.15;;;;;;;6.61;49.00;98667.31;4160063;28;20240;-49
2022/03/12 02:25:01;;;;;;;11.50;10.13;;;;;;;6.58;49.27;98656.06;4142693;28;20222;-48
2022/03/12 02:27:05;;;;;;;10.85;9.85;;;;;;;6.55;49.40;98659.22;4142479;28;20246;-50
2022/03/12 02:29:12;;;;;;;11.48;9.35;;;;;;;6.55;49.21;98668.19;4140379;28;20225;-49
2022/03/12 02:31:14;;;;;;;14.63;9.95;;;;;;;6.55;49.13;98661.94;4141478;28;20206;-50
2022/03/12 02:33:20;;;;;;;10.45;9.57;;;;;;;6.53;49.02;98667.59;4146886;28;20208;-50
2022/03/12 02:35:24;;;;;;;10.60;9.60;;;;;;;6.50;49.40;98659.06;4148316;28;20875;-49
2022/03/12 02:37:47;;;;;;;9.25;8.45;;;;;;;6.49;49.26;98668.28;4130496;28;20241;-49
2022/03/12 02:39:48;;;;;;;9.38;8.57;;;;;;;6.49;49.10;98669.06;4133531;28;21087;-49
2022/03/12 02:41:51;;;;;;;10.32;9.35;;;;;;;6.46;49.11;98668.69;4154443;28;20235;-48
2022/03/12 02:43:52;;;;;;;10.68;9.88;;;;;;;6.46;49.20;98674.13;4154810;28;20303;-50
2022/03/12 02:45:57;;;;;;;9.60;8.73;;;;;;;6.45;49.26;98683.34;4139742;28;20284;-50
2022/03/12 02:47:58;;;;;;;9.57;8.68;;;;;;;6.44;49.01;98681.69;4151672;28;20291;-49
2022/03/12 02:50:03;;;;;;;11.23;9.18;;;;;;;6.44;49.28;98670.81;4136890;28;20269;-49
2022/03/12 02:52:06;;;;;;;11.35;10.35;;;;;;;6.45;48.91;98677.91;4142464;28;20206;-49
2022/03/12 02:54:07;;;;;;;9.13;8.23;;;;;;;6.46;49.26;98680.41;4143441;28;20200;-49
2022/03/12 02:56:11;;;;;;;10.65;9.65;;;;;;;6.44;49.38;98681.69;4159310;28;20204;-49
2022/03/12 02:58:17;;;;;;;10.25;9.25;;;;;;;6.42;49.10;98678.34;4159149;28;20670;-49
2022/03/12 03:00:20;;;;;;;9.68;8.85;;;;;;;6.39;49.88;98676.91;4144692;28;20260;-50
2022/03/12 03:02:25;;;;;;;11.30;10.30;;;;;;;6.46;49.41;98682.28;4138837;28;20301;-51
2022/03/12 03:04:27;;;;;;;14.30;10.43;;;;;;;6.42;49.63;98683.78;4144365;28;20655;-50
2022/03/12 03:06:29;;;;;;;11.00;9.90;;;;;;;6.39;49.11;98690.50;4146275;28;20244;-51
2022/03/12 03:08:33;;;;;;;11.65;10.45;;;;;;;6.42;49.17;98690.03;4145129;28;20212;-50
2022/03/12 03:10:37;;;;;;;13.68;10.75;;;;;;;6.39;48.77;98692.38;4145813;28;20213;-49
2022/03/12 03:12:38;;;;;;;10.95;10.05;;;;;;;6.33;49.14;98693.22;4138774;28;20752;-48
2022/03/12 03:14:49;;;;;;;9.95;9.00;;;;;;;6.37;48.75;98697.19;4172601;28;20204;-49
2022/03/12 03:16:51;;;;;;;10.88;9.98;;;;;;;6.38;49.35;98693.41;4145430;28;20285;-48
2022/03/12 03:18:57;;;;;;;10.57;9.65;;;;;;;6.39;49.14;98695.09;4147268;28;20331;-49
2022/03/12 03:21:00;;;;;;;13.63;9.63;;;;;;;6.40;49.38;98696.75;4145723;28;20262;-49
2022/03/12 03:23:01;;;;;;;10.55;9.55;;;;;;;6.42;49.25;98705.53;4143661;28;20288;-52
2022/03/12 03:25:04;;;;;;;11.43;10.07;;;;;;;6.44;50.09;98714.28;4123937;28;20274;-49
2022/03/12 03:27:05;;;;;;;11.60;10.55;;;;;;;6.44;49.59;98711.56;4138426;28;20229;-49
2022/03/12 03:29:08;;;;;;;11.07;10.07;;;;;;;6.46;49.53;98723.03;4144595;28;20744;-50
2022/03/12 03:31:10;;;;;;;10.35;9.35;;;;;;;6.50;50.03;98721.56;4144927;28;20198;-49
2022/03/12 03:33:14;;;;;;;10.68;9.68;;;;;;;6.45;50.26;98721.38;4136050;28;20212;-49
2022/03/12 03:35:16;;;;;;;11.90;10.75;;;;;;;6.43;50.39;98723.50;4129464;28;20241;-51
2022/03/12 03:37:18;;;;;;;11.52;10.60;;;;;;;6.42;50.35;98721.84;4139704;28;20203;-49
2022/03/12 03:39:20;;;;;;;14.75;11.48;;;;;;;6.38;50.72;98731.47;4144984;28;20300;-50
2022/03/12 03:41:22;;;;;;;12.63;11.35;;;;;;;6.35;51.04;98730.00;4137885;28;20249;-51
2022/03/12 03:43:24;;;;;;;11.52;10.43;;;;;;;6.32;51.57;98732.34;4142477;28;20216;-50
2022/03/12 03:45:28;;;;;;;12.50;11.30;;;;;;;6.29;51.19;98730.06;4139077;28;20203;-50
2022/03/12 03:47:30;;;;;;;15.40;11.13;;;;;;;6.23;51.80;98729.03;4142184;28;20209;-49
2022/03/12 03:49:31;;;;;;;13.63;12.57;;;;;;;6.24;51.66;98724.44;4144466;28;20233;-50
2022/03/12 03:51:37;;;;;;;15.38;11.65;;;;;;;6.17;52.45;98729.91;4142275;28;20688;-50
2022/03/12 03:53:39;;;;;;;12.00;10.90;;;;;;;6.11;52.97;98719.94;4140966;28;20198;-49
2022/03/12 03:55:42;;;;;;;12.63;11.15;;;;;;;6.09;53.44;98727.44;4141019;28;20214;-49
2022/03/12 03:57:43;;;;;;;12.25;11.18;;;;;;;6.07;53.55;98723.28;4143679;28;20217;-48
2022/03/12 03:59:45;;;;;;;13.50;12.18;;;;;;;5.91;54.20;98721.06;4130041;28;20222;-49
2022/03/12 04:01:47;;;;;;;18.15;11.32;;;;;;;5.96;54.03;98726.69;4123952;28;20234;-50
2022/03/12 04:03:49;;;;;;;11.77;10.68;;;;;;;5.93;53.59;98717.09;4141675;28;20238;-49
2022/03/12 04:05:51;;;;;;;11.25;10.25;;;;;;;5.99;53.58;98726.25;4145218;28;20206;-49
2022/03/12 04:07:53;;;;;;;13.80;12.50;;;;;;;6.04;53.62;98718.28;4156271;28;20205;-49
2022/03/12 04:09:55;;;;;;;11.32;10.30;;;;;;;6.07;54.08;98725.97;4155512;28;20217;-50
2022/03/12 04:12:00;;;;;;;13.68;10.95;;;;;;;6.09;53.99;98729.34;4128306;28;20202;-49
2022/03/12 04:14:05;;;;;;;11.23;10.13;;;;;;;6.10;54.01;98729.09;4140542;28;20206;-49
2022/03/12 04:16:07;;;;;;;12.48;11.38;;;;;;;6.09;55.05;98721.19;4143389;28;20208;-49
2022/03/12 04:18:09;;;;;;;13.18;12.05;;;;;;;6.09;55.64;98727.44;4124193;28;20246;-50
2022/03/12 04:20:18;;;;;;;14.50;11.02;;;;;;;6.09;55.27;98726.63;4141723;28;20229;-53
2022/03/12 04:22:23;;;;;;;13.73;10.55;;;;;;;6.06;55.53;98719.75;4155392;28;20228;-49
2022/03/12 04:24:25;;;;;;;12.23;11.13;;;;;;;6.06;54.89;98727.03;4142686;28;20240;-50
2022/03/12 04:26:28;;;;;;;12.13;11.02;;;;;;;6.07;55.00;98723.28;4156417;28;20212;-49
2022/03/12 04:28:32;;;;;;;13.23;12.02;;;;;;;6.07;55.13;98728.69;4142257;28;20930;-50
2022/03/12 04:30:35;;;;;;;11.90;10.90;;;;;;;6.06;55.19;98727.03;4123464;28;20237;-49
2022/03/12 04:32:37;;;;;;;12.35;11.30;;;;;;;6.05;55.55;98725.38;4140587;28;20225;-50
2022/03/12 04:34:38;;;;;;;12.70;11.57;;;;;;;6.05;55.85;98725.38;4141280;28;20606;-51
2022/03/12 04:36:41;;;;;;;14.40;9.70;;;;;;;6.07;55.87;98734.13;4139177;28;20304;-50
2022/03/12 04:38:43;;;;;;;14.38;11.55;;;;;;;6.11;55.60;98732.66;4124125;28;20296;-49
2022/03/12 04:40:46;;;;;;;14.80;11.73;;;;;;;6.13;55.53;98736.84;4157074;28;20216;-49
2022/03/12 04:42:48;;;;;;;13.82;12.63;;;;;;;6.13;55.86;98744.13;4158647;28;20205;-51
2022/03/12 04:44:50;;;;;;;13.88;12.68;;;;;;;6.12;56.74;98737.03;4141024;28;20213;-49
2022/03/12 04:46:52;;;;;;;12.30;11.27;;;;;;;6.13;57.17;98733.28;4141421;28;20259;-49
2022/03/12 04:48:54;;;;;;;12.93;11.63;;;;;;;6.14;56.65;98734.94;4141489;28;20229;-49
2022/03/12 04:50:56;;;;;;;11.85;10.85;;;;;;;6.15;56.87;98736.63;4155765;28;20208;-49
2022/03/12 04:52:59;;;;;;;12.50;11.23;;;;;;;6.11;57.57;98725.38;4139249;28;20748;-49
2022/03/12 04:55:10;;;;;;;12.18;11.18;;;;;;;6.13;57.58;98744.13;4139265;28;20201;-51
2022/03/12 04:57:11;;;;;;;11.63;10.68;;;;;;;6.09;57.21;98737.50;4140326;28;20205;-51
2022/03/12 04:59:13;;;;;;;12.70;11.70;;;;;;;6.11;57.52;98736.22;4154898;28;21021;-51
2022/03/12 05:01:16;;;;;;;12.63;11.60;;;;;;;6.14;57.52;98737.66;4138870;28;20705;-51
2022/03/12 05:03:22;;;;;;;12.32;11.15;;;;;;;6.14;56.84;98738.50;4157975;28;20205;-50
2022/03/12 05:05:24;;;;;;;15.80;11.30;;;;;;;6.12;57.84;98739.75;4137398;28;20206;-52
2022/03/12 05:07:26;;;;;;;12.52;11.52;;;;;;;6.14;57.72;98745.78;4141971;28;20204;-52
2022/03/12 05:09:28;;;;;;;13.68;12.20;;;;;;;6.15;58.08;98742.06;4138304;28;20234;-50
2022/03/12 05:11:32;;;;;;;12.88;11.77;;;;;;;6.19;58.27;98737.84;4142553;28;20201;-50
2022/03/12 05:13:34;;;;;;;14.02;12.82;;;;;;;6.18;58.01;98741.63;4137350;28;20264;-49
2022/03/12 05:15:39;;;;;;;11.75;10.52;;;;;;;6.17;57.67;98740.75;4136355;28;20280;-50
2022/03/12 05:17:49;;;;;;;14.65;11.85;;;;;;;6.14;59.38;98741.22;4153324;28;20198;-50
2022/03/12 05:19:51;;;;;;;17.58;12.90;;;;;;;6.18;58.42;98741.63;4141718;28;20237;-50
2022/03/12 05:21:53;;;;;;;11.52;10.50;;;;;;;6.18;58.42;98741.63;4151688;28;20965;-50
2022/03/12 05:23:54;;;;;;;11.38;10.38;;;;;;;6.20;57.50;98742.22;4143784;28;20205;-51
2022/03/12 05:25:59;;;;;;;12.10;10.90;;;;;;;6.20;58.54;98745.78;4140517;28;20256;-49
2022/03/12 05:28:02;;;;;;;12.52;11.45;;;;;;;6.24;58.60;98746.19;4135376;28;20264;-50
2022/03/12 05:30:04;;;;;;;11.93;10.82;;;;;;;6.21;59.67;98746.59;4134292;28;20221;-50
2022/03/12 05:32:07;;;;;;;11.18;10.20;;;;;;;6.15;59.00;98740.16;4143673;28;20197;-49
2022/03/12 05:34:09;;;;;;;11.18;10.27;;;;;;;6.15;59.06;98742.06;4128263;28;20735;-50
2022/03/12 05:36:10;;;;;;;12.75;11.65;;;;;;;6.17;58.54;98735.34;4137379;28;20481;-49
2022/03/12 05:38:13;;;;;;;11.25;10.25;;;;;;;6.18;58.97;98741.63;4144554;28;20264;-50
2022/03/12 05:40:20;;;;;;;14.10;11.90;;;;;;;6.21;58.75;98741.16;4144553;28;20582;-50
2022/03/12 05:42:22;;;;;;;11.98;11.07;;;;;;;6.22;58.50;98748.28;4154176;28;20267;-50
2022/03/12 05:44:27;;;;;;;11.63;10.63;;;;;;;6.23;57.95;98737.19;4152682;28;20758;-50
2022/03/12 05:46:28;;;;;;;11.68;10.43;;;;;;;6.22;58.66;98742.84;4155809;28;20239;-50
2022/03/12 05:48:30;;;;;;;12.18;11.18;;;;;;;6.24;58.39;98746.19;4144722;28;22357;-51
2022/03/12 05:50:32;;;;;;;11.13;10.10;;;;;;;6.25;58.43;98745.13;4135604;28;20217;-49
2022/03/12 05:52:33;;;;;;;12.35;11.25;;;;;;;6.24;58.61;98751.63;4127130;28;20262;-51
2022/03/12 05:54:36;;;;;;;12.25;11.15;;;;;;;6.29;59.13;98754.53;4169864;28;20236;-50
2022/03/12 05:56:40;;;;;;;11.20;10.20;;;;;;;6.27;58.53;98757.44;4139398;28;20248;-49
2022/03/12 05:58:42;;;;;;;11.65;10.55;;;;;;;6.32;59.14;98759.50;4142003;28;20210;-50
2022/03/12 06:00:44;;;;;;;13.93;12.35;;;;;;;6.32;58.80;98756.78;4153701;28;20657;-49
2022/03/12 06:02:52;;;;;;;15.82;11.57;;;;;;;6.30;59.06;98762.44;4144504;28;20225;-50
2022/03/12 06:04:54;;;;;;;14.82;12.70;;;;;;;6.31;58.79;98763.28;4139418;28;20676;-49
2022/03/12 06:06:56;;;;;;;12.40;11.25;;;;;;;6.31;59.27;98761.41;4123191;28;20209;-49
2022/03/12 06:08:58;;;;;;;10.95;10.05;;;;;;;6.29;58.79;98759.97;4139159;28;20304;-50
2022/03/12 06:11:01;;;;;;;12.70;11.50;;;;;;;6.32;59.75;98763.06;4155550;28;20228;-49
2022/03/12 06:13:10;;;;;;;13.15;12.05;;;;;;;6.25;60.85;98759.56;4141212;28;20209;-49
2022/03/12 06:15:15;;;;;;;11.60;10.70;;;;;;;6.25;60.36;98764.16;4155413;28;20686;-49
2022/03/12 06:17:17;;;;;;;12.45;11.27;;;;;;;6.27;60.25;98764.75;4144967;28;20244;-49
2022/03/12 06:19:19;;;;;;;12.80;11.70;;;;;;;6.29;59.44;98765.41;4159243;28;20236;-49
2022/03/12 06:21:21;;;;;;;12.93;11.73;;;;;;;6.32;59.81;98770.38;4143149;28;20593;-49
2022/03/12 06:23:23;;;;;;;12.02;10.93;;;;;;;6.32;61.25;98764.94;4153760;28;20240;-49
2022/03/12 06:25:25;;;;;;;12.45;11.43;;;;;;;6.28;60.97;98758.28;4156023;28;20209;-49
2022/03/12 06:27:27;;;;;;;12.98;11.75;;;;;;;6.28;60.50;98763.72;4170236;28;20831;-49
2022/03/12 06:29:29;;;;;;;13.60;12.30;;;;;;;6.30;60.44;98767.88;4169803;28;20252;-49
2022/03/12 06:31:31;;;;;;;11.50;10.50;;;;;;;6.34;61.64;98762.84;4136670;28;20288;-50
2022/03/12 06:33:34;;;;;;;14.75;11.55;;;;;;;6.25;61.42;98766.88;4133397;28;20257;-49
2022/03/12 06:35:36;;;;;;;14.10;10.73;;;;;;;6.22;61.90;98764.59;4154112;28;20232;-50
2022/03/12 06:37:39;;;;;;;11.80;10.77;;;;;;;6.26;61.27;98763.09;4138357;28;20214;-49
2022/03/12 06:39:41;;;;;;;12.07;11.15;;;;;;;6.29;61.44;98765.41;4139251;28;20233;-50
2022/03/12 06:41:44;;;;;;;11.82;10.75;;;;;;;6.32;60.38;98764.94;4155255;28;20316;-51
2022/03/12 06:43:47;;;;;;;13.50;12.40;;;;;;;6.42;60.67;98770.75;4155165;28;22683;-47
2022/03/12 06:45:49;;;;;;;14.43;13.13;;;;;;;6.35;61.64;98765.34;4154757;28;20627;-50
2022/03/12 06:47:52;;;;;;;12.80;11.80;;;;;;;6.27;61.45;98778.34;4139283;28;20736;-49
2022/03/12 06:49:56;;;;;;;12.93;11.90;;;;;;;6.33;60.91;98766.59;4138913;28;20221;-49
2022/03/12 06:51:58;;;;;;;12.63;11.55;;;;;;;6.37;61.43;98767.84;4143703;28;20322;-49
2022/03/12 06:54:00;;;;;;;18.17;12.10;;;;;;;6.44;60.81;98774.09;4143338;28;20223;-49
2022/03/12 06:56:02;;;;;;;12.18;10.93;;;;;;;6.53;61.58;98780.91;4143953;28;20205;-50
2022/03/12 06:58:03;;;;;;;12.70;11.60;;;;;;;6.57;61.76;98782.16;4143516;28;20202;-48
2022/03/12 07:00:07;;;;;;;14.18;12.68;;;;;;;6.61;61.81;98786.09;4160295;28;20251;-48
2022/03/12 07:02:08;;;;;;;14.20;12.93;;;;;;;6.64;61.29;98780.25;4153813;28;20249;-49
2022/03/12 07:04:11;;;;;;;13.85;12.65;;;;;;;6.65;61.29;98776.47;4144467;28;20209;-50
2022/03/12 07:06:12;;;;;;;13.68;12.57;;;;;;;6.58;61.42;98781.09;4140200;28;20244;-50
2022/03/12 07:08:14;;;;;;;17.60;13.32;;;;;;;6.46;61.00;98783.69;4148282;28;20233;-48
2022/03/12 07:10:17;;;;;;;13.15;11.93;;;;;;;6.50;60.60;98789.53;4154300;28;20308;-48
2022/03/12 07:12:19;;;;;;;12.82;11.77;;;;;;;6.57;60.61;98784.88;4140483;28;20197;-48
2022/03/12 07:14:21;;;;;;;13.68;12.10;;;;;;;6.64;61.47;98785.69;4147916;28;20216;-49
2022/03/12 07:16:23;;;;;;;12.00;11.07;;;;;;;6.75;61.41;98782.28;4147493;28;20687;-50
2022/03/12 07:18:25;;;;;;;14.15;12.93;;;;;;;6.92;61.47;98783.38;4146887;28;20201;-50
2022/03/12 07:20:27;;;;;;;14.18;13.13;;;;;;;7.19;61.33;98784.84;4143350;28;20316;-49
2022/03/12 07:22:28;;;;;;;13.70;12.60;;;;;;;7.67;60.36;98789.44;4146947;28;20248;-48
2022/03/12 07:24:30;;;;;;;16.52;14.40;;;;;;;8.13;59.78;98788.91;4146034;28;20320;-50
2022/03/12 07:26:37;;;;;;;16.73;13.25;;;;;;;8.36;58.10;98787.19;4145390;28;20300;-49
2022/03/12 07:28:39;;;;;;;16.02;13.77;;;;;;;8.39;57.33;98796.78;4145821;28;20204;-49
2022/03/12 07:30:40;;;;;;;15.13;13.50;;;;;;;8.89;56.81;98790.03;4147465;28;20233;-49
2022/03/12 07:32:44;;;;;;;17.90;16.05;;;;;;;8.77;56.56;98790.00;4139413;28;20215;-51
2022/03/12 07:34:45;;;;;;;27.30;23.83;;;;;;;8.89;56.98;98785.38;4158758;28;20260;-50
2022/03/12 07:36:48;;;;;;;18.85;16.98;;;;;;;9.21;55.68;98792.22;4157324;28;20213;-49
2022/03/12 07:38:50;;;;;;;21.35;18.73;;;;;;;9.20;55.32;98795.19;4159364;28;20314;-49
2022/03/12 07:40:52;;;;;;;23.17;20.67;;;;;;;9.19;55.61;98807.19;4155355;28;20298;-50
2022/03/12 07:42:55;;;;;;;22.85;20.45;;;;;;;9.28;54.82;98808.53;4146052;28;20229;-49
2022/03/12 07:44:56;;;;;;;20.08;18.20;;;;;;;9.36;55.08;98802.72;4156454;28;20211;-49
2022/03/12 07:46:59;;;;;;;19.85;17.73;;;;;;;9.43;54.83;98804.25;4145718;28;20209;-49
2022/03/12 07:49:03;;;;;;;20.98;19.02;;;;;;;9.48;54.16;98809.03;4139564;28;20245;-47
2022/03/12 07:51:05;;;;;;;13.50;12.13;;;;;;;9.41;55.15;98805.56;4138567;28;20265;-45
2022/03/12 07:53:07;;;;;;;13.13;11.90;;;;;;;9.44;55.57;98810.56;4144015;28;20225;-46
2022/03/12 07:55:10;;;;;;;13.35;11.98;;;;;;;9.66;55.51;98809.75;4145341;28;20260;-46
2022/03/12 07:57:13;;;;;;;15.90;12.27;;;;;;;9.88;55.20;98801.78;4144190;28;20216;-46
2022/03/12 07:59:15;;;;;;;13.63;11.80;;;;;;;9.93;55.67;98801.88;4140583;28;20229;-46
2022/03/12 08:01:17;;;;;;;11.30;10.40;;;;;;;10.23;55.48;98808.06;4156644;28;20201;-46
2022/03/12 08:03:19;;;;;;;15.05;11.60;;;;;;;10.69;54.60;98803.28;4143399;28;20240;-45
2022/03/12 08:05:23;;;;;;;11.82;10.80;;;;;;;11.13;54.24;98797.03;4144481;28;20211;-46
2022/03/12 08:07:26;;;;;;;12.25;11.27;;;;;;;11.47;52.60;98805.03;4138639;28;20208;-46
2022/03/12 08:09:31;;;;;;;11.38;10.25;;;;;;;11.74;51.82;98806.06;4142481;28;20312;-46
2022/03/12 08:11:34;;;;;;;11.95;10.38;;;;;;;12.03;50.44;98804.03;4144817;28;20224;-45
2022/03/12 08:13:36;;;;;;;13.57;9.68;;;;;;;12.12;50.93;98811.53;4141751;28;20297;-46
2022/03/12 08:15:38;;;;;;;11.25;10.25;;;;;;;12.76;49.10;98807.19;4156013;28;20266;-45
2022/03/12 08:17:40;;;;;;;12.07;9.32;;;;;;;13.05;48.91;98809.47;4162796;28;20204;-46
2022/03/12 08:19:41;;;;;;;10.50;8.57;;;;;;;13.59;47.85;98816.59;4138075;28;20229;-46
2022/03/12 08:21:44;;;;;;;11.50;10.40;;;;;;;13.39;48.13;98813.69;4152725;28;20218;-45
2022/03/12 08:23:49;;;;;;;10.88;9.77;;;;;;;14.27;47.28;98811.06;4137571;28;20561;-46
2022/03/12 08:25:57;;;;;;;10.07;8.82;;;;;;;14.30;46.02;98810.53;4156631;28;20200;-45
2022/03/12 08:27:59;;;;;;;10.05;9.15;;;;;;;14.94;45.42;98809.19;4170397;28;20269;-46
2022/03/12 08:30:03;;;;;;;9.63;8.73;;;;;;;14.76;45.39;98817.94;4157419;28;20232;-45
2022/03/12 08:32:08;;;;;;;10.95;10.05;;;;;;;14.78;45.43;98821.25;4138597;28;20215;-46
2022/03/12 08:34:18;;;;;;;10.00;9.13;;;;;;;14.29;46.08;98819.88;4154190;28;20224;-45
2022/03/12 08:36:19;;;;;;;10.90;10.00;;;;;;;14.13;46.43;98822.78;4155674;28;20208;-45
2022/03/12 08:38:21;;;;;;;10.60;9.80;;;;;;;14.16;46.32;98831.34;4142007;28;20213;-46
2022/03/12 08:40:25;;;;;;;10.52;9.65;;;;;;;13.83;47.29;98826.13;4123677;28;20222;-45
2022/03/12 08:42:28;;;;;;;11.13;9.65;;;;;;;14.07;46.66;98823.84;4139197;28;20229;-46
2022/03/12 08:44:39;;;;;;;9.45;8.65;;;;;;;14.13;46.73;98831.88;4141926;28;20282;-45
2022/03/12 08:46:42;;;;;;;8.65;8.00;;;;;;;13.87;46.88;98818.19;4172953;28;20231;-45
2022/03/12 08:48:46;;;;;;;7.57;6.82;;;;;;;13.54;45.74;98824.81;4138963;28;20263;-45
2022/03/12 08:50:48;;;;;;;6.55;6.05;;;;;;;13.28;46.38;98820.16;4136748;28;20233;-45
2022/03/12 08:52:49;;;;;;;7.80;7.00;;;;;;;13.49;46.56;98819.25;4141178;28;20244;-45
2022/03/12 08:54:51;;;;;;;6.80;6.28;;;;;;;13.65;46.34;98821.06;4158290;28;20205;-46
2022/03/12 08:57:01;;;;;;;6.30;5.70;;;;;;;14.07;45.64;98823.84;4140734;28;20252;-45
2022/03/12 08:59:04;;;;;;;9.10;6.30;;;;;;;13.87;45.81;98821.78;4138144;28;20226;-45
2022/03/12 09:01:06;;;;;;;8.55;5.93;;;;;;;14.22;45.27;98824.81;4158542;28;20209;-45
2022/03/12 09:03:10;;;;;;;6.28;5.68;;;;;;;13.85;45.05;98826.72;4158841;28;20785;-44
2022/03/12 09:05:22;;;;;;;6.10;5.55;;;;;;;14.09;45.07;98824.44;4126143;28;20681;-46
2022/03/12 09:07:24;;;;;;;6.03;5.47;;;;;;;14.31;44.90;98823.19;4154955;28;20235;-46
2022/03/12 09:09:25;;;;;;;5.88;5.38;;;;;;;13.67;45.06;98823.53;4154196;28;20754;-45
2022/03/12 09:11:27;;;;;;;6.03;5.53;;;;;;;13.82;45.12;98826.41;4172455;28;20210;-45
2022/03/12 09:13:29;;;;;;;6.80;6.18;;;;;;;13.84;45.14;98825.03;4172227;28;20681;-45
2022/03/12 09:15:30;;;;;;;7.13;6.43;;;;;;;14.06;45.17;98822.19;4151450;28;20266;-45
2022/03/12 09:17:33;;;;;;;6.32;5.82;;;;;;;14.44;44.58;98819.97;4134486;28;20237;-45
2022/03/12 09:19:34;;;;;;;5.78;5.18;;;;;;;14.38;44.10;98810.03;4140384;28;20279;-45
2022/03/12 09:21:37;;;;;;;5.70;5.20;;;;;;;14.44;44.14;98805.38;4142886;28;20201;-45
2022/03/12 09:23:38;;;;;;;9.18;5.70;;;;;;;14.51;44.00;98811.47;4141023;28;20216;-45
2022/03/12 09:25:41;;;;;;;7.57;5.53;;;;;;;14.59;44.02;98806.28;4141593;28;20545;-45
2022/03/12 09:27:45;;;;;;;8.75;5.50;;;;;;;14.68;43.92;98799.16;4141193;28;20296;-45
2022/03/12 09:29:55;;;;;;;5.88;5.30;;;;;;;14.76;42.96;98815.16;4142666;28;20224;-45
2022/03/12 09:31:57;;;;;;;6.10;4.93;;;;;;;14.65;44.21;98802.47;4156960;28;20208;-45
2022/03/12 09:34:00;;;;;;;5.05;4.65;;;;;;;14.63;44.04;98799.13;4126820;28;20237;-45